sensor_id;sensor_type;location;lat;lon;timestamp;P1;durP1;ratioP1;P2;durP2;ratioP2
37609;SDS011;23457;51.966;8.230;2023-05-19T00:01:12;8.82;;;3.47;;
37609;SDS011;23457;51.966;8.230;2023-05-19T00:03:49;11.48;;;4.05;;
37609;SDS011;23457;51.966;8.230;2023-05-19T00:06:24;7.70;;;3.80;;
37609;SDS011;23457;51.966;8.230;2023-05-19T00:09:10;8.60;;;3.53;;
37609;SDS011;23457;51.966;8.230;2023-05-19T00:11:38;7.97;;;3.35;;
37609;SDS011;23457;51.966;8.230;2023-05-19T00:14:06;6.47;;;3.67;;
37609;SDS011;23457;51.966;8.230;2023-05-19T00:16:35;13.93;;;4.35;;
37609;SDS011;23457;51.966;8.230;2023-05-19T00:19:05;12.93;;;3.75;;
37609;SDS011;23457;51.966;8.230;2023-05-19T00:21:35;8.93;;;3.60;;
37609;SDS011;23457;51.966;8.230;2023-05-19T00:24:05;8.65;;;3.60;;
37609;SDS011;23457;51.966;8.230;2023-05-19T00:26:32;8.63;;;3.53;;
37609;SDS011;23457;51.966;8.230;2023-05-19T00:29:04;9.25;;;4.20;;
37609;SDS011;23457;51.966;8.230;2023-05-19T00:31:30;11.38;;;4.22;;
37609;SDS011;23457;51.966;8.230;2023-05-19T00:33:59;10.23;;;3.87;;
37609;SDS011;23457;51.966;8.230;2023-05-19T00:36:27;10.38;;;3.90;;
37609;SDS011;23457;51.966;8.230;2023-05-19T00:38:54;10.27;;;3.78;;
37609;SDS011;23457;51.966;8.230;2023-05-19T00:41:21;7.20;;;3.55;;
37609;SDS011;23457;51.966;8.230;2023-05-19T00:43:48;9.73;;;3.55;;
37609;SDS011;23457;51.966;8.230;2023-05-19T00:46:17;14.85;;;4.43;;
37609;SDS011;23457;51.966;8.230;2023-05-19T00:48:44;11.25;;;3.80;;
37609;SDS011;23457;51.966;8.230;2023-05-19T00:51:11;7.72;;;3.80;;
37609;SDS011;23457;51.966;8.230;2023-05-19T00:53:41;9.63;;;3.60;;
37609;SDS011;23457;51.966;8.230;2023-05-19T00:56:13;8.23;;;3.50;;
37609;SDS011;23457;51.966;8.230;2023-05-19T00:58:42;12.13;;;3.92;;
37609;SDS011;23457;51.966;8.230;2023-05-19T01:01:09;10.65;;;3.58;;
37609;SDS011;23457;51.966;8.230;2023-05-19T01:03:37;9.32;;;4.20;;
37609;SDS011;23457;51.966;8.230;2023-05-19T01:06:06;11.75;;;4.00;;
37609;SDS011;23457;51.966;8.230;2023-05-19T01:08:33;13.60;;;3.97;;
37609;SDS011;23457;51.966;8.230;2023-05-19T01:11:05;9.48;;;3.65;;
37609;SDS011;23457;51.966;8.230;2023-05-19T01:13:34;8.20;;;3.40;;
37609;SDS011;23457;51.966;8.230;2023-05-19T01:29:55;13.75;;;3.83;;
37609;SDS011;23457;51.966;8.230;2023-05-19T01:32:33;10.73;;;3.35;;
37609;SDS011;23457;51.966;8.230;2023-05-19T01:35:01;10.90;;;4.00;;
37609;SDS011;23457;51.966;8.230;2023-05-19T01:37:29;12.15;;;4.25;;
37609;SDS011;23457;51.966;8.230;2023-05-19T01:39:57;10.48;;;4.35;;
37609;SDS011;23457;51.966;8.230;2023-05-19T01:42:24;9.18;;;4.03;;
37609;SDS011;23457;51.966;8.230;2023-05-19T01:44:52;10.95;;;3.85;;
37609;SDS011;23457;51.966;8.230;2023-05-19T01:47:21;11.82;;;3.85;;
37609;SDS011;23457;51.966;8.230;2023-05-19T01:49:47;13.00;;;4.07;;
37609;SDS011;23457;51.966;8.230;2023-05-19T01:52:14;10.15;;;3.80;;
37609;SDS011;23457;51.966;8.230;2023-05-19T01:54:41;9.20;;;3.88;;
37609;SDS011;23457;51.966;8.230;2023-05-19T01:57:26;7.53;;;4.15;;
37609;SDS011;23457;51.966;8.230;2023-05-19T02:08:41;8.32;;;4.38;;
37609;SDS011;23457;51.966;8.230;2023-05-19T02:14:28;9.82;;;4.53;;
37609;SDS011;23457;51.966;8.230;2023-05-19T02:16:59;9.60;;;4.18;;
37609;SDS011;23457;51.966;8.230;2023-05-19T02:19:31;9.57;;;4.15;;
37609;SDS011;23457;51.966;8.230;2023-05-19T02:22:00;8.27;;;4.95;;
37609;SDS011;23457;51.966;8.230;2023-05-19T02:24:27;11.02;;;4.97;;
37609;SDS011;23457;51.966;8.230;2023-05-19T02:26:54;8.07;;;4.68;;
37609;SDS011;23457;51.966;8.230;2023-05-19T02:29:20;10.02;;;4.47;;
37609;SDS011;23457;51.966;8.230;2023-05-19T02:31:48;7.72;;;5.15;;
37609;SDS011;23457;51.966;8.230;2023-05-19T02:34:15;12.15;;;4.63;;
37609;SDS011;23457;51.966;8.230;2023-05-19T02:36:42;10.60;;;4.22;;
37609;SDS011;23457;51.966;8.230;2023-05-19T02:39:09;14.70;;;4.97;;
37609;SDS011;23457;51.966;8.230;2023-05-19T02:41:37;8.80;;;4.70;;
37609;SDS011;23457;51.966;8.230;2023-05-19T02:44:04;8.65;;;3.78;;
37609;SDS011;23457;51.966;8.230;2023-05-19T02:46:31;11.65;;;4.95;;
37609;SDS011;23457;51.966;8.230;2023-05-19T02:48:58;16.10;;;5.47;;
37609;SDS011;23457;51.966;8.230;2023-05-19T02:51:26;13.02;;;4.65;;
37609;SDS011;23457;51.966;8.230;2023-05-19T02:53:53;9.13;;;4.40;;
37609;SDS011;23457;51.966;8.230;2023-05-19T02:56:19;9.82;;;4.78;;
37609;SDS011;23457;51.966;8.230;2023-05-19T02:58:47;8.80;;;4.78;;
37609;SDS011;23457;51.966;8.230;2023-05-19T03:01:14;8.15;;;5.20;;
37609;SDS011;23457;51.966;8.230;2023-05-19T03:03:42;8.45;;;4.32;;
37609;SDS011;23457;51.966;8.230;2023-05-19T03:06:08;9.10;;;4.45;;
37609;SDS011;23457;51.966;8.230;2023-05-19T03:08:35;9.98;;;4.50;;
37609;SDS011;23457;51.966;8.230;2023-05-19T03:11:02;10.30;;;4.28;;
37609;SDS011;23457;51.966;8.230;2023-05-19T03:13:29;11.95;;;4.60;;
37609;SDS011;23457;51.966;8.230;2023-05-19T03:15:55;9.48;;;4.32;;
37609;SDS011;23457;51.966;8.230;2023-05-19T03:18:27;13.05;;;4.25;;
37609;SDS011;23457;51.966;8.230;2023-05-19T03:20:54;9.90;;;4.03;;
37609;SDS011;23457;51.966;8.230;2023-05-19T03:23:21;10.32;;;4.35;;
37609;SDS011;23457;51.966;8.230;2023-05-19T03:25:47;10.50;;;3.83;;
37609;SDS011;23457;51.966;8.230;2023-05-19T03:28:14;10.45;;;3.97;;
37609;SDS011;23457;51.966;8.230;2023-05-19T03:30:41;14.63;;;4.75;;
37609;SDS011;23457;51.966;8.230;2023-05-19T03:33:15;6.93;;;4.13;;
37609;SDS011;23457;51.966;8.230;2023-05-19T03:35:43;5.25;;;3.63;;
37609;SDS011;23457;51.966;8.230;2023-05-19T03:38:10;9.40;;;4.35;;
37609;SDS011;23457;51.966;8.230;2023-05-19T03:40:40;10.63;;;4.65;;
37609;SDS011;23457;51.966;8.230;2023-05-19T03:43:09;12.68;;;4.47;;
37609;SDS011;23457;51.966;8.230;2023-05-19T03:45:43;8.18;;;4.10;;
37609;SDS011;23457;51.966;8.230;2023-05-19T03:48:33;9.18;;;4.13;;
37609;SDS011;23457;51.966;8.230;2023-05-19T03:51:18;9.75;;;4.15;;
37609;SDS011;23457;51.966;8.230;2023-05-19T03:53:48;6.43;;;3.80;;
37609;SDS011;23457;51.966;8.230;2023-05-19T03:56:14;9.80;;;3.92;;
37609;SDS011;23457;51.966;8.230;2023-05-19T03:58:43;8.50;;;3.88;;
37609;SDS011;23457;51.966;8.230;2023-05-19T04:01:10;6.93;;;3.70;;
37609;SDS011;23457;51.966;8.230;2023-05-19T04:03:37;8.05;;;4.40;;
37609;SDS011;23457;51.966;8.230;2023-05-19T04:06:04;8.85;;;4.25;;
37609;SDS011;23457;51.966;8.230;2023-05-19T04:08:31;7.28;;;3.88;;
37609;SDS011;23457;51.966;8.230;2023-05-19T04:10:57;10.93;;;4.25;;
37609;SDS011;23457;51.966;8.230;2023-05-19T04:13:24;13.25;;;4.38;;
37609;SDS011;23457;51.966;8.230;2023-05-19T04:15:51;11.00;;;4.53;;
37609;SDS011;23457;51.966;8.230;2023-05-19T04:18:18;11.35;;;4.38;;
37609;SDS011;23457;51.966;8.230;2023-05-19T04:20:45;11.70;;;4.32;;
37609;SDS011;23457;51.966;8.230;2023-05-19T04:23:11;14.40;;;4.63;;
37609;SDS011;23457;51.966;8.230;2023-05-19T04:25:38;10.23;;;4.38;;
37609;SDS011;23457;51.966;8.230;2023-05-19T04:28:06;8.88;;;4.57;;
37609;SDS011;23457;51.966;8.230;2023-05-19T04:30:33;9.50;;;4.80;;
37609;SDS011;23457;51.966;8.230;2023-05-19T04:33:00;11.43;;;4.70;;
37609;SDS011;23457;51.966;8.230;2023-05-19T04:35:29;12.30;;;4.78;;
37609;SDS011;23457;51.966;8.230;2023-05-19T04:37:58;10.32;;;4.93;;
37609;SDS011;23457;51.966;8.230;2023-05-19T04:40:27;15.75;;;5.13;;
37609;SDS011;23457;51.966;8.230;2023-05-19T04:42:57;14.90;;;5.30;;
37609;SDS011;23457;51.966;8.230;2023-05-19T04:45:24;11.25;;;4.68;;
37609;SDS011;23457;51.966;8.230;2023-05-19T04:47:54;9.82;;;4.47;;
37609;SDS011;23457;51.966;8.230;2023-05-19T04:50:23;7.05;;;4.78;;
37609;SDS011;23457;51.966;8.230;2023-05-19T04:52:51;13.93;;;5.22;;
37609;SDS011;23457;51.966;8.230;2023-05-19T04:55:17;11.05;;;5.10;;
37609;SDS011;23457;51.966;8.230;2023-05-19T04:57:46;12.23;;;4.70;;
37609;SDS011;23457;51.966;8.230;2023-05-19T05:00:13;11.82;;;4.97;;
37609;SDS011;23457;51.966;8.230;2023-05-19T05:03:01;11.93;;;5.07;;
37609;SDS011;23457;51.966;8.230;2023-05-19T05:05:31;9.45;;;4.47;;
37609;SDS011;23457;51.966;8.230;2023-05-19T05:07:58;8.40;;;4.70;;
37609;SDS011;23457;51.966;8.230;2023-05-19T05:10:30;8.32;;;4.82;;
37609;SDS011;23457;51.966;8.230;2023-05-19T05:12:57;11.82;;;4.85;;
37609;SDS011;23457;51.966;8.230;2023-05-19T05:15:24;15.85;;;4.93;;
37609;SDS011;23457;51.966;8.230;2023-05-19T05:17:56;14.60;;;4.28;;
37609;SDS011;23457;51.966;8.230;2023-05-19T05:20:23;10.32;;;3.83;;
37609;SDS011;23457;51.966;8.230;2023-05-19T05:22:50;17.77;;;4.05;;
37609;SDS011;23457;51.966;8.230;2023-05-19T05:25:19;8.05;;;4.00;;
37609;SDS011;23457;51.966;8.230;2023-05-19T05:27:47;7.03;;;3.38;;
37609;SDS011;23457;51.966;8.230;2023-05-19T05:30:14;10.90;;;3.55;;
37609;SDS011;23457;51.966;8.230;2023-05-19T05:32:42;13.00;;;3.65;;
37609;SDS011;23457;51.966;8.230;2023-05-19T05:35:22;7.75;;;3.03;;
37609;SDS011;23457;51.966;8.230;2023-05-19T05:37:49;4.93;;;3.25;;
37609;SDS011;23457;51.966;8.230;2023-05-19T05:40:16;11.68;;;3.03;;
37609;SDS011;23457;51.966;8.230;2023-05-19T05:42:43;11.38;;;3.45;;
37609;SDS011;23457;51.966;8.230;2023-05-19T05:45:10;9.30;;;3.15;;
37609;SDS011;23457;51.966;8.230;2023-05-19T05:47:37;12.23;;;2.70;;
37609;SDS011;23457;51.966;8.230;2023-05-19T05:52:35;8.20;;;2.75;;
37609;SDS011;23457;51.966;8.230;2023-05-19T05:55:03;6.97;;;2.60;;
37609;SDS011;23457;51.966;8.230;2023-05-19T05:57:31;10.00;;;2.75;;
37609;SDS011;23457;51.966;8.230;2023-05-19T06:00:00;7.85;;;2.75;;
37609;SDS011;23457;51.966;8.230;2023-05-19T06:02:28;11.15;;;2.92;;
37609;SDS011;23457;51.966;8.230;2023-05-19T06:04:57;8.15;;;3.00;;
37609;SDS011;23457;51.966;8.230;2023-05-19T06:07:23;10.57;;;2.65;;
37609;SDS011;23457;51.966;8.230;2023-05-19T06:09:50;12.10;;;3.20;;
37609;SDS011;23457;51.966;8.230;2023-05-19T06:12:18;9.02;;;2.63;;
37609;SDS011;23457;51.966;8.230;2023-05-19T06:14:47;11.48;;;3.72;;
37609;SDS011;23457;51.966;8.230;2023-05-19T06:17:33;7.65;;;2.65;;
37609;SDS011;23457;51.966;8.230;2023-05-19T06:22:33;7.68;;;2.55;;
37609;SDS011;23457;51.966;8.230;2023-05-19T06:25:03;11.77;;;2.47;;
37609;SDS011;23457;51.966;8.230;2023-05-19T06:27:32;11.98;;;2.67;;
37609;SDS011;23457;51.966;8.230;2023-05-19T06:30:01;13.27;;;2.30;;
37609;SDS011;23457;51.966;8.230;2023-05-19T06:32:34;12.18;;;2.30;;
37609;SDS011;23457;51.966;8.230;2023-05-19T06:35:01;10.27;;;2.22;;
37609;SDS011;23457;51.966;8.230;2023-05-19T06:37:28;12.00;;;2.28;;
37609;SDS011;23457;51.966;8.230;2023-05-19T06:39:55;13.00;;;2.13;;
37609;SDS011;23457;51.966;8.230;2023-05-19T06:42:23;11.80;;;2.75;;
37609;SDS011;23457;51.966;8.230;2023-05-19T06:45:05;10.27;;;2.70;;
37609;SDS011;23457;51.966;8.230;2023-05-19T06:47:32;7.65;;;2.25;;
37609;SDS011;23457;51.966;8.230;2023-05-19T06:49:59;9.88;;;3.28;;
37609;SDS011;23457;51.966;8.230;2023-05-19T06:52:29;8.90;;;2.22;;
37609;SDS011;23457;51.966;8.230;2023-05-19T06:54:56;8.73;;;2.20;;
37609;SDS011;23457;51.966;8.230;2023-05-19T06:57:23;7.15;;;2.80;;
37609;SDS011;23457;51.966;8.230;2023-05-19T06:59:50;10.05;;;2.15;;
37609;SDS011;23457;51.966;8.230;2023-05-19T07:02:17;9.23;;;2.45;;
37609;SDS011;23457;51.966;8.230;2023-05-19T07:04:43;8.85;;;2.05;;
37609;SDS011;23457;51.966;8.230;2023-05-19T07:07:14;10.98;;;1.95;;
37609;SDS011;23457;51.966;8.230;2023-05-19T07:09:41;8.07;;;2.08;;
37609;SDS011;23457;51.966;8.230;2023-05-19T07:12:08;8.15;;;1.75;;
37609;SDS011;23457;51.966;8.230;2023-05-19T07:14:35;8.80;;;1.80;;
37609;SDS011;23457;51.966;8.230;2023-05-19T07:17:04;8.07;;;1.80;;
37609;SDS011;23457;51.966;8.230;2023-05-19T07:19:32;5.85;;;1.80;;
37609;SDS011;23457;51.966;8.230;2023-05-19T07:21:58;9.25;;;2.00;;
37609;SDS011;23457;51.966;8.230;2023-05-19T07:24:25;7.65;;;1.60;;
37609;SDS011;23457;51.966;8.230;2023-05-19T07:26:52;4.32;;;1.33;;
37609;SDS011;23457;51.966;8.230;2023-05-19T07:29:19;5.03;;;1.65;;
37609;SDS011;23457;51.966;8.230;2023-05-19T07:31:46;7.03;;;1.92;;
37609;SDS011;23457;51.966;8.230;2023-05-19T07:34:12;5.78;;;1.55;;
37609;SDS011;23457;51.966;8.230;2023-05-19T07:36:39;9.30;;;1.77;;
37609;SDS011;23457;51.966;8.230;2023-05-19T07:39:06;8.45;;;2.28;;
37609;SDS011;23457;51.966;8.230;2023-05-19T07:41:33;8.52;;;2.22;;
37609;SDS011;23457;51.966;8.230;2023-05-19T07:44:01;6.97;;;1.70;;
37609;SDS011;23457;51.966;8.230;2023-05-19T07:46:33;5.68;;;1.77;;
37609;SDS011;23457;51.966;8.230;2023-05-19T07:49:00;7.10;;;1.95;;
37609;SDS011;23457;51.966;8.230;2023-05-19T07:51:27;7.03;;;1.73;;
37609;SDS011;23457;51.966;8.230;2023-05-19T07:53:53;8.13;;;1.80;;
37609;SDS011;23457;51.966;8.230;2023-05-19T07:56:20;8.55;;;1.50;;
37609;SDS011;23457;51.966;8.230;2023-05-19T07:58:46;5.95;;;1.50;;
37609;SDS011;23457;51.966;8.230;2023-05-19T08:01:13;6.45;;;1.60;;
37609;SDS011;23457;51.966;8.230;2023-05-19T08:03:40;6.60;;;1.90;;
37609;SDS011;23457;51.966;8.230;2023-05-19T08:06:07;9.38;;;2.13;;
37609;SDS011;23457;51.966;8.230;2023-05-19T08:08:33;7.32;;;1.83;;
37609;SDS011;23457;51.966;8.230;2023-05-19T08:11:00;8.20;;;1.70;;
37609;SDS011;23457;51.966;8.230;2023-05-19T08:13:29;6.00;;;1.50;;
37609;SDS011;23457;51.966;8.230;2023-05-19T08:15:56;11.05;;;1.70;;
37609;SDS011;23457;51.966;8.230;2023-05-19T08:18:25;8.13;;;1.77;;
37609;SDS011;23457;51.966;8.230;2023-05-19T08:20:52;6.97;;;1.40;;
37609;SDS011;23457;51.966;8.230;2023-05-19T08:23:18;11.50;;;2.00;;
37609;SDS011;23457;51.966;8.230;2023-05-19T08:25:45;7.53;;;1.60;;
37609;SDS011;23457;51.966;8.230;2023-05-19T08:28:12;10.27;;;1.90;;
37609;SDS011;23457;51.966;8.230;2023-05-19T08:30:39;6.47;;;1.90;;
37609;SDS011;23457;51.966;8.230;2023-05-19T08:33:06;6.90;;;1.58;;
37609;SDS011;23457;51.966;8.230;2023-05-19T08:35:33;8.00;;;1.63;;
37609;SDS011;23457;51.966;8.230;2023-05-19T08:38:00;6.55;;;1.70;;
37609;SDS011;23457;51.966;8.230;2023-05-19T08:40:27;6.43;;;1.83;;
37609;SDS011;23457;51.966;8.230;2023-05-19T08:42:57;8.25;;;1.92;;
37609;SDS011;23457;51.966;8.230;2023-05-19T08:45:23;6.72;;;1.50;;
37609;SDS011;23457;51.966;8.230;2023-05-19T08:47:50;5.43;;;1.60;;
37609;SDS011;23457;51.966;8.230;2023-05-19T08:50:19;8.30;;;2.05;;
37609;SDS011;23457;51.966;8.230;2023-05-19T08:56:00;9.65;;;2.00;;
37609;SDS011;23457;51.966;8.230;2023-05-19T08:58:29;5.78;;;1.80;;
37609;SDS011;23457;51.966;8.230;2023-05-19T09:00:57;9.15;;;2.00;;
37609;SDS011;23457;51.966;8.230;2023-05-19T09:03:26;6.18;;;1.48;;
37609;SDS011;23457;51.966;8.230;2023-05-19T09:05:54;5.22;;;1.58;;
37609;SDS011;23457;51.966;8.230;2023-05-19T09:08:21;4.72;;;1.50;;
37609;SDS011;23457;51.966;8.230;2023-05-19T09:10:48;7.70;;;2.03;;
37609;SDS011;23457;51.966;8.230;2023-05-19T09:13:14;3.95;;;1.50;;
37609;SDS011;23457;51.966;8.230;2023-05-19T09:15:41;9.25;;;1.88;;
37609;SDS011;23457;51.966;8.230;2023-05-19T09:18:11;7.75;;;1.88;;
37609;SDS011;23457;51.966;8.230;2023-05-19T09:20:40;6.43;;;1.60;;
37609;SDS011;23457;51.966;8.230;2023-05-19T09:23:12;7.55;;;1.77;;
37609;SDS011;23457;51.966;8.230;2023-05-19T09:28:25;7.40;;;1.70;;
37609;SDS011;23457;51.966;8.230;2023-05-19T09:31:00;7.15;;;1.92;;
37609;SDS011;23457;51.966;8.230;2023-05-19T09:33:40;4.45;;;1.50;;
37609;SDS011;23457;51.966;8.230;2023-05-19T09:36:11;4.63;;;1.65;;
37609;SDS011;23457;51.966;8.230;2023-05-19T09:38:39;9.63;;;1.92;;
37609;SDS011;23457;51.966;8.230;2023-05-19T09:41:06;7.13;;;1.92;;
37609;SDS011;23457;51.966;8.230;2023-05-19T09:43:34;9.05;;;2.30;;
37609;SDS011;23457;51.966;8.230;2023-05-19T09:46:05;6.70;;;1.85;;
37609;SDS011;23457;51.966;8.230;2023-05-19T09:48:33;5.55;;;1.60;;
37609;SDS011;23457;51.966;8.230;2023-05-19T09:51:02;7.77;;;1.60;;
37609;SDS011;23457;51.966;8.230;2023-05-19T09:55:59;6.50;;;1.73;;
37609;SDS011;23457;51.966;8.230;2023-05-19T09:58:30;6.07;;;1.58;;
37609;SDS011;23457;51.966;8.230;2023-05-19T10:01:00;5.90;;;1.52;;
37609;SDS011;23457;51.966;8.230;2023-05-19T10:03:29;8.27;;;1.70;;
37609;SDS011;23457;51.966;8.230;2023-05-19T10:05:58;4.63;;;1.42;;
37609;SDS011;23457;51.966;8.230;2023-05-19T10:08:27;7.53;;;1.58;;
37609;SDS011;23457;51.966;8.230;2023-05-19T10:13:23;3.40;;;1.40;;
37609;SDS011;23457;51.966;8.230;2023-05-19T10:15:51;9.77;;;1.67;;
37609;SDS011;23457;51.966;8.230;2023-05-19T10:18:25;4.28;;;1.73;;
37609;SDS011;23457;51.966;8.230;2023-05-19T10:20:53;5.57;;;1.48;;
37609;SDS011;23457;51.966;8.230;2023-05-19T10:23:20;7.47;;;1.60;;
37609;SDS011;23457;51.966;8.230;2023-05-19T10:25:48;5.22;;;1.70;;
37609;SDS011;23457;51.966;8.230;2023-05-19T10:28:18;4.38;;;1.80;;
37609;SDS011;23457;51.966;8.230;2023-05-19T10:30:52;9.82;;;1.70;;
37609;SDS011;23457;51.966;8.230;2023-05-19T10:39:05;6.25;;;1.38;;
37609;SDS011;23457;51.966;8.230;2023-05-19T10:44:08;8.43;;;1.90;;
37609;SDS011;23457;51.966;8.230;2023-05-19T10:47:00;6.25;;;2.42;;
37609;SDS011;23457;51.966;8.230;2023-05-19T10:49:27;6.68;;;1.75;;
37609;SDS011;23457;51.966;8.230;2023-05-19T10:51:54;4.55;;;2.05;;
37609;SDS011;23457;51.966;8.230;2023-05-19T10:54:39;5.15;;;1.70;;
37609;SDS011;23457;51.966;8.230;2023-05-19T10:57:12;4.07;;;1.67;;
37609;SDS011;23457;51.966;8.230;2023-05-19T10:59:40;5.28;;;1.60;;
37609;SDS011;23457;51.966;8.230;2023-05-19T11:02:07;8.07;;;1.65;;
37609;SDS011;23457;51.966;8.230;2023-05-19T11:04:38;3.92;;;1.50;;
37609;SDS011;23457;51.966;8.230;2023-05-19T11:07:07;7.57;;;1.50;;
37609;SDS011;23457;51.966;8.230;2023-05-19T11:12:08;6.60;;;1.40;;
37609;SDS011;23457;51.966;8.230;2023-05-19T11:14:36;3.58;;;1.60;;
37609;SDS011;23457;51.966;8.230;2023-05-19T11:17:03;5.28;;;1.70;;
37609;SDS011;23457;51.966;8.230;2023-05-19T11:19:31;4.63;;;1.65;;
37609;SDS011;23457;51.966;8.230;2023-05-19T11:24:43;7.25;;;1.65;;
37609;SDS011;23457;51.966;8.230;2023-05-19T11:27:19;7.38;;;1.80;;
37609;SDS011;23457;51.966;8.230;2023-05-19T11:30:17;4.53;;;1.75;;
37609;SDS011;23457;51.966;8.230;2023-05-19T11:32:48;7.32;;;1.95;;
37609;SDS011;23457;51.966;8.230;2023-05-19T11:35:15;7.15;;;1.65;;
37609;SDS011;23457;51.966;8.230;2023-05-19T11:37:44;9.00;;;2.00;;
37609;SDS011;23457;51.966;8.230;2023-05-19T11:40:12;8.97;;;1.87;;
37609;SDS011;23457;51.966;8.230;2023-05-19T11:42:40;7.35;;;1.50;;
37609;SDS011;23457;51.966;8.230;2023-05-19T11:45:07;4.85;;;1.67;;
37609;SDS011;23457;51.966;8.230;2023-05-19T11:47:35;10.23;;;2.28;;
37609;SDS011;23457;51.966;8.230;2023-05-19T11:50:21;4.40;;;1.60;;
37609;SDS011;23457;51.966;8.230;2023-05-19T11:52:52;6.32;;;1.67;;
37609;SDS011;23457;51.966;8.230;2023-05-19T11:55:20;4.35;;;1.83;;
37609;SDS011;23457;51.966;8.230;2023-05-19T12:00:33;4.38;;;1.60;;
37609;SDS011;23457;51.966;8.230;2023-05-19T12:03:05;5.85;;;1.50;;
37609;SDS011;23457;51.966;8.230;2023-05-19T12:05:35;4.03;;;1.63;;
37609;SDS011;23457;51.966;8.230;2023-05-19T12:08:08;4.13;;;1.40;;
37609;SDS011;23457;51.966;8.230;2023-05-19T12:10:35;4.10;;;1.63;;
37609;SDS011;23457;51.966;8.230;2023-05-19T12:13:04;5.47;;;1.60;;
37609;SDS011;23457;51.966;8.230;2023-05-19T12:15:33;6.05;;;1.52;;
37609;SDS011;23457;51.966;8.230;2023-05-19T12:18:01;5.32;;;1.65;;
37609;SDS011;23457;51.966;8.230;2023-05-19T12:20:28;7.10;;;1.58;;
37609;SDS011;23457;51.966;8.230;2023-05-19T12:22:58;5.43;;;1.58;;
37609;SDS011;23457;51.966;8.230;2023-05-19T12:25:25;6.18;;;1.67;;
37609;SDS011;23457;51.966;8.230;2023-05-19T12:27:56;7.30;;;1.77;;
37609;SDS011;23457;51.966;8.230;2023-05-19T12:30:27;3.15;;;1.67;;
37609;SDS011;23457;51.966;8.230;2023-05-19T12:32:55;4.28;;;1.77;;
37609;SDS011;23457;51.966;8.230;2023-05-19T12:35:29;4.57;;;1.77;;
37609;SDS011;23457;51.966;8.230;2023-05-19T12:38:05;2.33;;;1.23;;
37609;SDS011;23457;51.966;8.230;2023-05-19T12:40:35;5.68;;;1.70;;
37609;SDS011;23457;51.966;8.230;2023-05-19T12:43:03;4.93;;;2.15;;
37609;SDS011;23457;51.966;8.230;2023-05-19T12:45:34;3.47;;;1.33;;
37609;SDS011;23457;51.966;8.230;2023-05-19T12:48:04;2.60;;;1.35;;
37609;SDS011;23457;51.966;8.230;2023-05-19T12:50:32;1.63;;;1.00;;
37609;SDS011;23457;51.966;8.230;2023-05-19T12:53:02;5.07;;;1.60;;
37609;SDS011;23457;51.966;8.230;2023-05-19T12:55:28;2.83;;;1.45;;
37609;SDS011;23457;51.966;8.230;2023-05-19T12:57:56;4.10;;;1.83;;
37609;SDS011;23457;51.966;8.230;2023-05-19T13:00:24;3.10;;;1.10;;
37609;SDS011;23457;51.966;8.230;2023-05-19T13:05:40;4.32;;;1.33;;
37609;SDS011;23457;51.966;8.230;2023-05-19T13:08:12;1.98;;;1.27;;
37609;SDS011;23457;51.966;8.230;2023-05-19T13:10:44;6.15;;;1.48;;
37609;SDS011;23457;51.966;8.230;2023-05-19T13:13:11;6.85;;;1.75;;
37609;SDS011;23457;51.966;8.230;2023-05-19T13:15:42;8.25;;;1.40;;
37609;SDS011;23457;51.966;8.230;2023-05-19T13:18:10;3.20;;;1.27;;
37609;SDS011;23457;51.966;8.230;2023-05-19T13:20:39;5.32;;;1.60;;
37609;SDS011;23457;51.966;8.230;2023-05-19T13:23:08;5.60;;;1.70;;
37609;SDS011;23457;51.966;8.230;2023-05-19T13:25:36;4.82;;;1.40;;
37609;SDS011;23457;51.966;8.230;2023-05-19T13:28:02;4.82;;;1.60;;
37609;SDS011;23457;51.966;8.230;2023-05-19T13:30:34;4.53;;;1.50;;
37609;SDS011;23457;51.966;8.230;2023-05-19T13:33:03;3.22;;;1.70;;
37609;SDS011;23457;51.966;8.230;2023-05-19T13:35:30;5.78;;;1.67;;
37609;SDS011;23457;51.966;8.230;2023-05-19T13:38:03;3.75;;;1.48;;
37609;SDS011;23457;51.966;8.230;2023-05-19T13:40:30;3.13;;;1.30;;
37609;SDS011;23457;51.966;8.230;2023-05-19T13:43:03;3.90;;;1.55;;
37609;SDS011;23457;51.966;8.230;2023-05-19T13:45:29;3.58;;;1.67;;
37609;SDS011;23457;51.966;8.230;2023-05-19T13:47:56;6.03;;;1.77;;
37609;SDS011;23457;51.966;8.230;2023-05-19T13:50:23;6.55;;;1.55;;
37609;SDS011;23457;51.966;8.230;2023-05-19T13:52:50;4.28;;;1.67;;
37609;SDS011;23457;51.966;8.230;2023-05-19T13:55:17;5.88;;;1.60;;
37609;SDS011;23457;51.966;8.230;2023-05-19T13:57:44;3.40;;;1.38;;
37609;SDS011;23457;51.966;8.230;2023-05-19T14:00:11;4.40;;;1.88;;
37609;SDS011;23457;51.966;8.230;2023-05-19T14:02:38;6.68;;;1.77;;
37609;SDS011;23457;51.966;8.230;2023-05-19T14:05:05;5.35;;;1.73;;
37609;SDS011;23457;51.966;8.230;2023-05-19T14:07:32;2.53;;;1.52;;
37609;SDS011;23457;51.966;8.230;2023-05-19T14:10:02;4.38;;;1.80;;
37609;SDS011;23457;51.966;8.230;2023-05-19T14:12:31;5.50;;;1.60;;
37609;SDS011;23457;51.966;8.230;2023-05-19T14:15:12;4.80;;;1.50;;
37609;SDS011;23457;51.966;8.230;2023-05-19T14:17:43;5.22;;;2.20;;
37609;SDS011;23457;51.966;8.230;2023-05-19T14:20:10;6.50;;;1.80;;
37609;SDS011;23457;51.966;8.230;2023-05-19T14:22:37;3.95;;;1.55;;
37609;SDS011;23457;51.966;8.230;2023-05-19T14:25:04;6.13;;;1.70;;
37609;SDS011;23457;51.966;8.230;2023-05-19T14:27:31;4.63;;;1.58;;
37609;SDS011;23457;51.966;8.230;2023-05-19T14:29:58;5.07;;;1.30;;
37609;SDS011;23457;51.966;8.230;2023-05-19T14:32:24;5.70;;;1.95;;
37609;SDS011;23457;51.966;8.230;2023-05-19T14:34:55;3.50;;;1.77;;
37609;SDS011;23457;51.966;8.230;2023-05-19T14:37:22;5.70;;;1.70;;
37609;SDS011;23457;51.966;8.230;2023-05-19T14:39:49;2.97;;;1.33;;
37609;SDS011;23457;51.966;8.230;2023-05-19T14:42:16;2.53;;;1.48;;
37609;SDS011;23457;51.966;8.230;2023-05-19T14:44:42;6.10;;;1.77;;
37609;SDS011;23457;51.966;8.230;2023-05-19T14:47:09;3.95;;;1.90;;
37609;SDS011;23457;51.966;8.230;2023-05-19T14:49:37;3.38;;;1.45;;
37609;SDS011;23457;51.966;8.230;2023-05-19T14:52:04;4.05;;;1.60;;
37609;SDS011;23457;51.966;8.230;2023-05-19T14:54:31;5.22;;;1.33;;
37609;SDS011;23457;51.966;8.230;2023-05-19T14:56:57;7.00;;;1.77;;
37609;SDS011;23457;51.966;8.230;2023-05-19T14:59:24;4.65;;;1.52;;
37609;SDS011;23457;51.966;8.230;2023-05-19T15:01:51;3.45;;;1.60;;
37609;SDS011;23457;51.966;8.230;2023-05-19T15:04:17;2.53;;;1.50;;
37609;SDS011;23457;51.966;8.230;2023-05-19T15:06:44;4.03;;;1.55;;
37609;SDS011;23457;51.966;8.230;2023-05-19T15:09:17;4.90;;;1.60;;
37609;SDS011;23457;51.966;8.230;2023-05-19T15:11:44;4.72;;;1.70;;
37609;SDS011;23457;51.966;8.230;2023-05-19T15:14:11;4.80;;;1.33;;
37609;SDS011;23457;51.966;8.230;2023-05-19T15:16:38;4.43;;;1.40;;
37609;SDS011;23457;51.966;8.230;2023-05-19T15:19:05;3.92;;;1.90;;
37609;SDS011;23457;51.966;8.230;2023-05-19T15:21:57;3.83;;;1.50;;
37609;SDS011;23457;51.966;8.230;2023-05-19T15:24:23;3.88;;;1.50;;
37609;SDS011;23457;51.966;8.230;2023-05-19T15:26:50;3.92;;;1.75;;
37609;SDS011;23457;51.966;8.230;2023-05-19T15:29:17;3.97;;;1.30;;
37609;SDS011;23457;51.966;8.230;2023-05-19T15:31:44;6.45;;;1.55;;
37609;SDS011;23457;51.966;8.230;2023-05-19T15:34:11;4.53;;;1.60;;
37609;SDS011;23457;51.966;8.230;2023-05-19T15:36:38;2.85;;;1.40;;
37609;SDS011;23457;51.966;8.230;2023-05-19T15:39:05;4.35;;;1.50;;
37609;SDS011;23457;51.966;8.230;2023-05-19T15:41:32;5.43;;;1.52;;
37609;SDS011;23457;51.966;8.230;2023-05-19T15:43:58;4.57;;;1.52;;
37609;SDS011;23457;51.966;8.230;2023-05-19T15:46:26;3.80;;;1.50;;
37609;SDS011;23457;51.966;8.230;2023-05-19T15:48:53;6.25;;;1.70;;
37609;SDS011;23457;51.966;8.230;2023-05-19T15:51:20;2.95;;;1.25;;
37609;SDS011;23457;51.966;8.230;2023-05-19T15:53:46;3.83;;;1.88;;
37609;SDS011;23457;51.966;8.230;2023-05-19T15:56:13;2.40;;;1.38;;